createdAt,value
2019-02-14T00:01:05.785Z,45.45
2019-02-14T00:03:07.541Z,42.00
2019-02-14T00:05:16.250Z,40.33
2019-02-14T00:07:13.917Z,42.77
2019-02-14T00:09:15.693Z,41.92
2019-02-14T00:11:17.490Z,41.80
2019-02-14T00:13:19.229Z,42.27
2019-02-14T00:15:21.353Z,41.05
2019-02-14T00:17:23.209Z,41.00
2019-02-14T00:19:25.070Z,45.95
2019-02-14T00:21:26.820Z,39.78
2019-02-14T00:23:28.566Z,43.75
2019-02-14T00:25:30.330Z,40.17
2019-02-14T00:27:32.133Z,38.53
2019-02-14T00:29:33.846Z,47.27
2019-02-14T00:31:35.890Z,36.77
2019-02-14T00:33:37.665Z,37.05
2019-02-14T00:35:39.895Z,42.58
2019-02-14T00:37:41.664Z,40.60
2019-02-14T00:39:43.396Z,44.10
2019-02-14T00:41:45.121Z,36.55
2019-02-14T00:43:46.876Z,39.60
2019-02-14T00:45:48.610Z,40.17
2019-02-14T00:47:50.324Z,38.02
2019-02-14T00:49:52.077Z,43.90
2019-02-14T00:51:54.594Z,42.20
2019-02-14T00:53:56.341Z,40.33
2019-02-14T00:55:58.435Z,40.52
2019-02-14T00:58:00.177Z,43.92
2019-02-14T01:00:02.161Z,44.58
2019-02-14T01:02:04.206Z,39.65
2019-02-14T01:04:06.098Z,44.67
2019-02-14T01:06:07.824Z,44.33
2019-02-14T01:08:09.694Z,45.03
2019-02-14T01:10:11.639Z,48.55
2019-02-14T01:12:13.619Z,51.05
2019-02-14T01:14:15.496Z,40.00
2019-02-14T01:16:17.257Z,43.38
2019-02-14T01:18:19.092Z,46.53
2019-02-14T01:20:20.847Z,46.70
2019-02-14T01:22:22.699Z,48.50
2019-02-14T01:24:24.572Z,50.00
2019-02-14T01:26:26.405Z,47.53
2019-02-14T01:28:28.144Z,47.75
2019-02-14T01:30:30.098Z,47.17
2019-02-14T01:32:31.958Z,48.10
2019-02-14T01:34:33.697Z,45.70
2019-02-14T01:36:35.462Z,47.93
2019-02-14T01:38:37.201Z,47.33
2019-02-14T01:40:38.929Z,57.35
2019-02-14T01:42:40.732Z,51.70
2019-02-14T01:44:42.495Z,50.73
2019-02-14T01:46:44.213Z,47.48
2019-02-14T01:48:45.944Z,59.42
2019-02-14T01:50:47.656Z,53.13
2019-02-14T01:52:49.428Z,50.30
2019-02-14T01:54:51.169Z,52.15
2019-02-14T01:56:53.062Z,53.28
2019-02-14T01:58:54.830Z,50.48
2019-02-14T02:00:56.859Z,52.98
2019-02-14T02:02:58.621Z,56.63
2019-02-14T02:05:00.456Z,54.98
2019-02-14T02:07:02.233Z,54.42
2019-02-14T02:09:06.251Z,50.52
2019-02-14T02:11:08.443Z,50.50
2019-02-14T02:13:10.298Z,47.70
2019-02-14T02:15:12.823Z,47.78
2019-02-14T02:17:14.612Z,47.65
2019-02-14T02:19:16.541Z,46.58
2019-02-14T02:21:18.315Z,54.42
2019-02-14T02:23:20.129Z,48.50
2019-02-14T02:25:21.896Z,55.38
2019-02-14T02:27:23.665Z,55.23
2019-02-14T02:29:25.421Z,53.00
2019-02-14T02:31:27.269Z,50.85
2019-02-14T02:33:28.993Z,50.58
2019-02-14T02:35:30.725Z,51.37
2019-02-14T02:37:32.890Z,55.23
2019-02-14T02:39:34.608Z,51.10
2019-02-14T02:41:36.326Z,52.62
2019-02-14T02:43:38.038Z,53.98
2019-02-14T02:45:39.841Z,57.50
2019-02-14T02:47:41.741Z,60.28
2019-02-14T02:49:43.444Z,50.20
2019-02-14T02:51:45.210Z,53.17
2019-02-14T02:53:47.034Z,55.23
2019-02-14T02:55:48.873Z,57.13
2019-02-14T02:57:50.595Z,52.48
2019-02-14T02:59:52.568Z,54.88
2019-02-14T03:01:54.282Z,53.25
2019-02-14T03:03:56.003Z,48.45
2019-02-14T03:05:57.747Z,56.53
2019-02-14T03:07:59.454Z,53.65
2019-02-14T03:10:01.273Z,53.85
2019-02-14T03:12:03.473Z,57.03
2019-02-14T03:14:05.178Z,56.55
2019-02-14T03:16:06.906Z,57.80
2019-02-14T03:18:08.629Z,57.43
2019-02-14T03:20:10.897Z,56.35
2019-02-14T03:22:12.604Z,61.42
2019-02-14T03:24:14.346Z,53.52
2019-02-14T03:26:16.054Z,55.92
2019-02-14T03:28:17.857Z,58.17
2019-02-14T03:30:19.576Z,57.13
2019-02-14T03:32:21.411Z,56.50
2019-02-14T03:34:23.120Z,54.25
2019-02-14T03:36:24.824Z,56.48
2019-02-14T03:38:26.573Z,57.58
2019-02-14T03:40:28.277Z,54.77
2019-02-14T03:42:29.977Z,63.75
2019-02-14T03:44:31.804Z,53.42
2019-02-14T03:46:33.509Z,57.73
2019-02-14T03:48:35.229Z,61.58
2019-02-14T03:50:36.958Z,53.92
2019-02-14T03:52:38.976Z,52.60
2019-02-14T03:54:40.678Z,56.92
2019-02-14T03:56:42.386Z,56.92
2019-02-14T03:58:44.100Z,57.70
2019-02-14T04:00:45.827Z,57.85
2019-02-14T04:02:47.591Z,54.65
2019-02-14T04:04:49.309Z,54.30
2019-02-14T04:06:51.029Z,60.30
2019-02-14T04:08:52.733Z,57.62
2019-02-14T04:10:54.761Z,57.35
2019-02-14T04:12:56.457Z,55.50
2019-02-14T04:14:58.162Z,57.93
2019-02-14T04:16:59.901Z,53.65
2019-02-14T04:19:01.613Z,63.78
2019-02-14T04:21:03.341Z,59.35
2019-02-14T04:23:05.153Z,61.53
2019-02-14T04:25:07.219Z,64.97
2019-02-14T04:27:08.933Z,58.73
2019-02-14T04:29:10.758Z,63.75
2019-02-14T04:31:12.468Z,59.13
2019-02-14T04:33:14.192Z,58.50
2019-02-14T04:35:15.904Z,57.85
2019-02-14T04:37:17.633Z,63.50
2019-02-14T04:39:19.345Z,60.60
2019-02-14T04:41:21.073Z,57.67
2019-02-14T04:43:22.769Z,60.05
2019-02-14T04:45:24.469Z,58.65
2019-02-14T04:47:26.202Z,53.17
2019-02-14T04:49:27.910Z,59.93
2019-02-14T04:51:29.620Z,68.28
2019-02-14T04:53:31.514Z,58.92
2019-02-14T04:55:33.218Z,61.40
2019-02-14T04:57:34.927Z,64.15
2019-02-14T04:59:36.796Z,57.43
2019-02-14T05:01:38.521Z,55.35
2019-02-14T05:03:40.225Z,60.80
2019-02-14T05:05:42.080Z,59.73
2019-02-14T05:07:43.892Z,57.67
2019-02-14T05:09:45.599Z,59.60
2019-02-14T05:11:47.554Z,64.07
2019-02-14T05:13:49.263Z,63.05
2019-02-14T05:15:51.116Z,60.83
2019-02-14T05:17:52.836Z,57.93
2019-02-14T05:19:54.544Z,65.20
2019-02-14T05:21:56.371Z,60.67
2019-02-14T05:23:59.037Z,64.37
2019-02-14T05:26:00.748Z,62.65
2019-02-14T05:28:02.788Z,59.03
2019-02-14T05:30:05.593Z,62.08
2019-02-14T05:32:07.397Z,58.13
2019-02-14T05:34:09.134Z,58.02
2019-02-14T05:36:10.860Z,66.67
2019-02-14T05:38:12.561Z,57.17
2019-02-14T05:40:14.277Z,60.35
2019-02-14T05:42:15.996Z,58.10
2019-02-14T05:44:17.726Z,59.90
2019-02-14T05:46:19.437Z,62.80
2019-02-14T05:48:21.155Z,64.25
2019-02-14T05:50:22.893Z,62.15
2019-02-14T05:52:24.605Z,57.05
2019-02-14T05:54:26.304Z,59.18
2019-02-14T05:56:28.057Z,57.55
2019-02-14T05:58:29.771Z,58.00
2019-02-14T06:00:31.481Z,60.63
2019-02-14T06:02:33.230Z,62.30
2019-02-14T06:04:34.942Z,60.25
2019-02-14T06:06:36.641Z,65.37
2019-02-14T06:08:38.629Z,59.98
2019-02-14T06:10:40.352Z,57.70
2019-02-14T06:12:42.174Z,60.40
2019-02-14T06:14:43.886Z,66.15
2019-02-14T06:16:45.636Z,58.33
2019-02-14T06:18:47.348Z,64.87
2019-02-14T06:20:49.073Z,66.35
2019-02-14T06:22:50.797Z,58.30
2019-02-14T06:24:52.639Z,61.40
2019-02-14T06:26:54.344Z,61.58
2019-02-14T06:28:56.374Z,61.10
2019-02-14T06:30:58.088Z,56.30
2019-02-14T06:32:59.793Z,59.33
2019-02-14T06:35:01.560Z,67.87
2019-02-14T06:37:09.463Z,62.58
2019-02-14T06:39:06.953Z,63.08
2019-02-14T06:41:11.466Z,57.58
2019-02-14T06:43:13.210Z,68.10
2019-02-14T06:45:14.949Z,69.15
2019-02-14T06:47:16.669Z,59.80
2019-02-14T06:49:18.388Z,61.55
2019-02-14T06:51:20.102Z,63.95
2019-02-14T06:53:22.126Z,61.05
2019-02-14T06:55:23.848Z,60.52
2019-02-14T06:57:25.561Z,68.42
2019-02-14T06:59:27.401Z,59.80
2019-02-14T07:01:29.105Z,55.80
2019-02-14T07:03:30.813Z,63.40
2019-02-14T07:05:32.544Z,61.95
2019-02-14T07:07:34.255Z,68.72
2019-02-14T07:09:36.056Z,64.75
2019-02-14T07:11:37.954Z,65.45
2019-02-14T07:13:39.657Z,59.18
2019-02-14T07:15:41.361Z,64.30
2019-02-14T07:17:43.089Z,68.72
2019-02-14T07:19:44.817Z,66.65
2019-02-14T07:21:46.517Z,63.95
2019-02-14T07:23:48.233Z,59.77
2019-02-14T07:25:49.950Z,67.67
2019-02-14T07:27:51.656Z,61.85
2019-02-14T07:29:53.409Z,57.83
2019-02-14T07:31:55.124Z,58.33
2019-02-14T07:33:56.844Z,60.28
2019-02-14T07:35:58.567Z,61.60
2019-02-14T07:38:00.270Z,57.62
2019-02-14T07:40:02.073Z,62.53
2019-02-14T07:42:03.801Z,61.80
2019-02-14T07:44:05.525Z,65.42
2019-02-14T07:46:07.351Z,61.28
2019-02-14T07:48:09.381Z,58.58
2019-02-14T07:50:11.290Z,62.35
2019-02-14T07:52:12.998Z,58.75
2019-02-14T07:54:14.713Z,58.17
2019-02-14T07:56:16.429Z,57.93
2019-02-14T07:58:18.134Z,54.35
2019-02-14T08:00:19.969Z,59.03
2019-02-14T08:02:21.685Z,66.70
2019-02-14T08:04:23.384Z,57.20
2019-02-14T08:06:25.161Z,60.25
2019-02-14T08:08:26.951Z,62.27
2019-02-14T08:10:28.657Z,61.20
2019-02-14T08:12:30.492Z,63.48
2019-02-14T08:14:32.207Z,59.30
2019-02-14T08:16:33.925Z,56.83
2019-02-14T08:18:35.734Z,58.17
2019-02-14T08:20:37.437Z,57.75
2019-02-14T08:22:39.140Z,59.08
2019-02-14T08:24:41.048Z,58.95
2019-02-14T08:26:42.779Z,56.45
2019-02-14T08:28:44.530Z,64.05
2019-02-14T08:30:46.433Z,62.00
2019-02-14T08:32:48.154Z,54.25
2019-02-14T08:34:50.046Z,55.48
2019-02-14T08:36:51.753Z,59.05
2019-02-14T08:38:53.458Z,50.43
2019-02-14T08:40:55.426Z,59.03
2019-02-14T08:42:58.663Z,58.50
2019-02-14T08:45:00.693Z,55.80
2019-02-14T08:47:02.903Z,64.47
2019-02-14T08:49:04.611Z,56.40
2019-02-14T08:51:06.322Z,56.18
2019-02-14T08:53:08.068Z,63.00
2019-02-14T08:55:10.278Z,51.50
2019-02-14T08:57:12.477Z,54.15
2019-02-14T08:59:14.306Z,59.75
2019-02-14T09:01:16.017Z,53.35
2019-02-14T09:03:17.721Z,56.15
2019-02-14T09:05:19.471Z,56.65
2019-02-14T09:07:21.226Z,57.35
2019-02-14T09:09:22.940Z,55.33
2019-02-14T09:11:24.662Z,54.55
2019-02-14T09:13:26.386Z,53.33
2019-02-14T09:15:28.104Z,59.65
2019-02-14T09:17:29.854Z,50.65
2019-02-14T09:19:31.554Z,58.42
2019-02-14T09:21:33.261Z,60.83
2019-02-14T09:23:34.972Z,48.52
2019-02-14T09:25:36.762Z,54.13
2019-02-14T09:27:38.578Z,51.80
2019-02-14T09:29:40.305Z,49.45
2019-02-14T09:31:42.253Z,47.98
2019-02-14T09:33:43.966Z,55.43
2019-02-14T09:35:45.678Z,50.10
2019-02-14T09:37:47.406Z,54.40
2019-02-14T09:39:49.114Z,51.93
2019-02-14T09:41:50.861Z,49.65
2019-02-14T09:43:52.840Z,50.70
2019-02-14T09:45:54.554Z,50.77
2019-02-14T09:47:56.278Z,47.97
2019-02-14T09:49:57.996Z,50.13
2019-02-14T09:51:59.809Z,47.60
2019-02-14T09:54:01.550Z,47.50
2019-02-14T09:56:03.374Z,49.43
2019-02-14T09:58:05.078Z,48.07
2019-02-14T10:00:09.887Z,45.47
2019-02-14T10:02:11.685Z,55.80
2019-02-14T10:04:13.434Z,52.63
2019-02-14T10:06:15.240Z,56.33
2019-02-14T10:08:16.965Z,48.67
2019-02-14T10:10:18.732Z,50.73
2019-02-14T10:12:20.505Z,52.63
2019-02-14T10:14:22.345Z,49.43
2019-02-14T10:16:24.090Z,48.40
2019-02-14T10:18:25.808Z,47.60
2019-02-14T10:20:27.795Z,47.07
2019-02-14T10:22:29.589Z,48.13
2019-02-14T10:24:31.501Z,42.93
2019-02-14T10:26:33.229Z,45.60
2019-02-14T10:28:35.084Z,47.57
2019-02-14T10:30:36.909Z,48.67
2019-02-14T10:32:38.701Z,46.63
2019-02-14T10:34:40.539Z,48.67
2019-02-14T10:36:42.249Z,43.00
2019-02-14T10:38:45.298Z,44.30
2019-02-14T10:40:47.285Z,42.50
2019-02-14T10:42:49.142Z,47.93
2019-02-14T10:44:51.053Z,47.13
2019-02-14T10:46:52.809Z,51.47
2019-02-14T10:48:54.518Z,41.57
2019-02-14T10:50:56.322Z,42.23
2019-02-14T10:52:58.164Z,39.90
2019-02-14T10:54:59.997Z,41.30
2019-02-14T10:57:01.707Z,40.93
2019-02-14T10:59:03.558Z,42.00
2019-02-14T11:01:05.786Z,38.90
2019-02-14T11:03:07.608Z,37.97
2019-02-14T11:05:09.859Z,41.67
2019-02-14T11:07:13.540Z,37.67
2019-02-14T11:09:15.281Z,39.63
2019-02-14T11:11:17.097Z,41.23
2019-02-14T11:13:18.821Z,39.07
2019-02-14T11:15:20.785Z,31.90
2019-02-14T11:17:22.618Z,35.97
2019-02-14T11:19:24.363Z,38.27
2019-02-14T11:21:26.081Z,37.90
2019-02-14T11:23:27.921Z,38.80
2019-02-14T11:25:31.098Z,34.00
2019-02-14T11:27:32.801Z,36.70
2019-02-14T11:29:34.539Z,35.53
2019-02-14T11:31:36.237Z,34.47
2019-02-14T11:33:37.941Z,33.93
2019-02-14T11:35:39.675Z,39.50
2019-02-14T11:37:41.393Z,36.50
2019-02-14T11:39:43.092Z,35.93
2019-02-14T11:41:44.839Z,33.27
2019-02-14T11:43:46.562Z,32.77
2019-02-14T11:45:50.240Z,32.33
2019-02-14T11:47:51.965Z,33.83
2019-02-14T11:49:53.665Z,32.60
2019-02-14T11:51:55.381Z,32.07
2019-02-14T11:53:57.188Z,34.43
2019-02-14T11:55:59.141Z,35.57
2019-02-14T11:58:00.857Z,31.40
2019-02-14T12:00:03.890Z,36.83
2019-02-14T12:02:05.651Z,31.50
2019-02-14T12:04:07.466Z,29.60
2019-02-14T12:06:09.186Z,29.17
2019-02-14T12:08:10.895Z,33.50
2019-02-14T12:10:13.978Z,28.07
2019-02-14T12:12:15.794Z,28.60
2019-02-14T12:14:17.554Z,29.97
2019-02-14T12:16:19.319Z,30.57
2019-02-14T12:18:21.133Z,28.00
2019-02-14T12:20:22.843Z,26.27
2019-02-14T12:22:24.634Z,27.93
2019-02-14T12:24:26.377Z,26.17
2019-02-14T12:26:28.088Z,24.67
2019-02-14T12:28:29.787Z,27.37
2019-02-14T12:30:31.624Z,25.80
2019-02-14T12:32:33.366Z,29.07
2019-02-14T12:34:35.076Z,29.07
2019-02-14T12:36:36.850Z,25.40
2019-02-14T12:38:38.566Z,25.53
2019-02-14T12:40:40.272Z,25.50
2019-02-14T12:42:42.010Z,23.43
2019-02-14T12:44:43.804Z,25.20
2019-02-14T12:46:45.498Z,25.73
2019-02-14T12:48:47.209Z,21.30
2019-02-14T12:50:48.969Z,23.33
2019-02-14T12:52:50.762Z,21.77
2019-02-14T12:54:52.491Z,24.50
2019-02-14T12:56:54.208Z,24.80
2019-02-14T12:58:55.940Z,23.53
2019-02-14T13:00:57.650Z,22.30
2019-02-14T13:02:59.361Z,21.27
2019-02-14T13:05:01.050Z,19.90
2019-02-14T13:07:03.473Z,20.30
2019-02-14T13:09:06.237Z,18.73
2019-02-14T13:11:07.956Z,20.37
2019-02-14T13:13:09.754Z,18.57
2019-02-14T13:15:13.745Z,21.07
2019-02-14T13:17:15.476Z,20.57
2019-02-14T13:19:17.261Z,19.07
2019-02-14T13:21:18.969Z,19.90
2019-02-14T13:23:20.715Z,21.43
2019-02-14T13:25:22.515Z,19.57
2019-02-14T13:27:24.233Z,20.23
2019-02-14T13:29:25.948Z,19.83
2019-02-14T13:31:32.116Z,20.03
2019-02-14T13:33:31.401Z,19.10
2019-02-14T13:35:33.115Z,17.77
2019-02-14T13:37:34.917Z,19.60
2019-02-14T13:39:36.728Z,17.07
2019-02-14T13:41:38.434Z,15.73
2019-02-14T13:43:40.130Z,14.33
2019-02-14T13:45:41.845Z,15.47
2019-02-14T13:47:43.574Z,14.73
2019-02-14T13:49:45.284Z,14.10
2019-02-14T13:51:47.184Z,16.97
2019-02-14T13:53:48.905Z,15.80
2019-02-14T13:55:50.605Z,19.63
2019-02-14T13:57:52.482Z,15.40
2019-02-14T13:59:54.189Z,16.53
2019-02-14T14:01:55.889Z,16.70
2019-02-14T14:03:57.625Z,14.47
2019-02-14T14:05:59.333Z,14.30
2019-02-14T14:08:01.033Z,14.30
2019-02-14T14:10:03.345Z,14.30
2019-02-14T14:12:05.044Z,16.30
2019-02-14T14:14:06.851Z,13.63
2019-02-14T14:16:08.565Z,14.10
2019-02-14T14:18:10.277Z,14.23
2019-02-14T14:20:12.077Z,12.43
2019-02-14T14:22:13.814Z,13.00
2019-02-14T14:24:15.549Z,12.77
2019-02-14T14:26:17.265Z,13.03
2019-02-14T14:28:18.961Z,14.37
2019-02-14T14:30:20.669Z,13.27
2019-02-14T14:34:38.625Z,15.53
2019-02-14T14:36:40.342Z,13.50
2019-02-14T14:38:42.176Z,13.80
2019-02-14T14:40:44.213Z,15.20
2019-02-14T14:43:05.615Z,14.37
2019-02-14T14:45:09.337Z,15.33
2019-02-14T14:47:16.236Z,12.80
2019-02-14T14:49:17.990Z,14.27
2019-02-14T14:51:19.724Z,15.77
2019-02-14T14:53:21.437Z,15.77
2019-02-14T14:55:23.172Z,13.60
2019-02-14T14:57:24.938Z,11.73
2019-02-14T14:59:26.700Z,12.70
2019-02-14T15:01:28.553Z,14.37
2019-02-14T15:03:30.375Z,14.97
2019-02-14T15:05:32.126Z,15.67
2019-02-14T15:07:33.877Z,13.53
2019-02-14T15:09:35.669Z,13.07
2019-02-14T15:11:37.408Z,14.97
2019-02-14T15:13:39.129Z,12.93
2019-02-14T15:15:40.869Z,14.43
2019-02-14T15:17:44.641Z,13.20
2019-02-14T15:19:46.370Z,16.83
2019-02-14T15:21:48.257Z,14.10
2019-02-14T15:23:50.114Z,13.67
2019-02-14T15:25:51.857Z,12.33
2019-02-14T15:27:53.641Z,14.43
2019-02-14T15:29:55.599Z,14.60
2019-02-14T15:31:57.336Z,16.57
2019-02-14T15:33:59.247Z,13.77
2019-02-14T15:36:01.099Z,17.67
2019-02-14T15:38:02.845Z,14.67
2019-02-14T15:40:09.376Z,13.90
2019-02-14T15:42:08.365Z,16.77
2019-02-14T15:44:10.108Z,13.47
2019-02-14T15:46:11.897Z,14.43
2019-02-14T15:48:13.625Z,14.70
2019-02-14T15:50:15.491Z,14.90
2019-02-14T15:52:17.240Z,13.90
2019-02-14T15:54:18.987Z,14.33
2019-02-14T15:56:20.902Z,19.00
2019-02-14T15:58:22.820Z,20.93
2019-02-14T16:00:24.668Z,15.20
2019-02-14T16:02:28.439Z,13.90
2019-02-14T16:04:31.362Z,20.23
2019-02-14T16:06:33.260Z,16.83
2019-02-14T16:08:35.030Z,15.97
2019-02-14T16:10:36.777Z,14.47
2019-02-14T16:12:38.668Z,17.30
2019-02-14T16:14:41.063Z,17.33
2019-02-14T16:16:45.379Z,18.20
2019-02-14T16:18:49.150Z,20.23
2019-02-14T16:20:51.249Z,20.30
2019-02-14T16:22:53.026Z,24.43
2019-02-14T16:24:54.905Z,20.73
2019-02-14T16:26:56.690Z,26.17
2019-02-14T16:29:01.052Z,23.50
2019-02-14T16:31:02.209Z,24.07
2019-02-14T16:33:04.015Z,21.50
2019-02-14T16:35:06.050Z,19.03
2019-02-14T16:37:08.209Z,20.00
2019-02-14T16:39:10.173Z,21.80
2019-02-14T16:41:15.093Z,20.77
2019-02-14T16:43:17.013Z,17.80
2019-02-14T16:45:19.049Z,20.70
2019-02-14T16:47:20.996Z,18.00
2019-02-14T16:49:22.717Z,17.50
2019-02-14T16:51:24.450Z,21.37
2019-02-14T16:53:26.237Z,20.57
2019-02-14T16:55:28.047Z,21.17
2019-02-14T16:57:31.426Z,21.30
2019-02-14T16:59:33.189Z,19.90
2019-02-14T17:01:35.285Z,21.73
2019-02-14T17:03:37.049Z,19.90
2019-02-14T17:05:38.814Z,19.73
2019-02-14T17:07:40.636Z,23.67
2019-02-14T17:09:42.353Z,20.33
2019-02-14T17:11:44.096Z,20.33
2019-02-14T17:13:45.971Z,17.27
2019-02-14T17:15:47.701Z,18.90
2019-02-14T17:17:49.553Z,22.37
2019-02-14T17:19:51.458Z,21.50
2019-02-14T17:21:53.203Z,21.07
2019-02-14T17:23:54.961Z,22.80
2019-02-14T17:25:56.841Z,17.03
2019-02-14T17:27:58.576Z,19.30
2019-02-14T17:30:00.349Z,19.97
2019-02-14T17:32:02.282Z,21.03
2019-02-14T17:34:04.129Z,23.30
2019-02-14T17:36:05.893Z,22.53
2019-02-14T17:38:07.662Z,18.60
2019-02-14T17:40:10.617Z,21.70
2019-02-14T17:42:12.381Z,25.10
2019-02-14T17:44:14.116Z,18.80
2019-02-14T17:46:16.009Z,19.53
2019-02-14T17:48:17.898Z,22.07
2019-02-14T17:50:19.982Z,20.60
2019-02-14T17:52:21.875Z,19.70
2019-02-14T17:54:23.625Z,19.73
2019-02-14T17:56:25.397Z,21.93
2019-02-14T17:58:27.149Z,20.97
2019-02-14T18:00:30.081Z,21.00
2019-02-14T18:02:31.870Z,21.70
2019-02-14T18:04:33.629Z,19.60
2019-02-14T18:06:35.345Z,20.23
2019-02-14T18:08:37.089Z,18.93
2019-02-14T18:10:38.854Z,19.77
2019-02-14T18:12:40.579Z,18.83
2019-02-14T18:14:42.302Z,22.60
2019-02-14T18:16:44.187Z,20.80
2019-02-14T18:18:45.913Z,23.67
2019-02-14T18:20:47.659Z,21.27
2019-02-14T18:22:49.384Z,23.57
2019-02-14T18:24:51.165Z,20.97
2019-02-14T18:26:52.896Z,23.03
2019-02-14T18:28:54.954Z,22.80
2019-02-14T18:30:56.670Z,22.60
2019-02-14T18:32:58.496Z,21.57
2019-02-14T18:35:00.357Z,22.97
2019-02-14T18:37:02.274Z,25.60
2019-02-14T18:39:05.851Z,23.23
2019-02-14T18:41:07.584Z,26.20
2019-02-14T18:43:09.346Z,25.20
2019-02-14T18:45:11.894Z,24.10
2019-02-14T18:47:13.642Z,26.00
2019-02-14T18:49:15.403Z,25.50
2019-02-14T18:51:17.225Z,23.80
2019-02-14T18:53:19.005Z,23.90
2019-02-14T18:55:20.946Z,21.40
2019-02-14T18:57:22.854Z,27.40
2019-02-14T18:59:24.593Z,26.77
2019-02-14T19:01:26.400Z,25.47
2019-02-14T19:03:28.284Z,25.93
2019-02-14T19:05:30.077Z,26.40
2019-02-14T19:07:31.794Z,26.47
2019-02-14T19:09:33.541Z,25.53
2019-02-14T19:11:35.508Z,26.63
2019-02-14T19:13:37.254Z,24.47
2019-02-14T19:15:38.967Z,23.10
2019-02-14T19:17:40.747Z,23.37
2019-02-14T19:19:42.684Z,24.20
2019-02-14T19:21:44.465Z,24.57
2019-02-14T19:23:46.358Z,24.50
2019-02-14T19:25:48.314Z,25.60
2019-02-14T19:27:50.113Z,27.43
2019-02-14T19:29:52.001Z,25.33
2019-02-14T19:31:53.722Z,25.67
2019-02-14T19:33:55.470Z,26.80
2019-02-14T19:35:57.382Z,21.80
2019-02-14T19:37:59.109Z,20.67
2019-02-14T19:40:00.884Z,23.98
2019-02-14T19:42:02.956Z,26.80
2019-02-14T19:44:04.727Z,23.53
2019-02-14T19:46:06.553Z,25.05
2019-02-14T19:48:08.305Z,22.90
2019-02-14T19:50:10.105Z,22.37
2019-02-14T19:52:12.060Z,21.73
2019-02-14T19:54:14.001Z,29.52
2019-02-14T19:56:15.789Z,24.70
2019-02-14T19:58:17.971Z,22.27
2019-02-14T20:00:19.935Z,24.00
2019-02-14T20:02:21.690Z,22.90
2019-02-14T20:04:23.444Z,23.60
2019-02-14T20:06:25.350Z,22.07
2019-02-14T20:08:27.080Z,23.05
2019-02-14T20:10:28.966Z,23.15
2019-02-14T20:12:30.949Z,22.90
2019-02-14T20:14:32.717Z,26.20
2019-02-14T20:16:34.506Z,25.50
2019-02-14T20:18:36.271Z,26.05
2019-02-14T20:20:38.024Z,25.95
2019-02-14T20:22:39.800Z,22.73
2019-02-14T20:24:41.891Z,25.95
2019-02-14T20:26:43.689Z,24.10
2019-02-14T20:28:45.421Z,25.00
2019-02-14T20:30:47.350Z,24.93
2019-02-14T20:32:49.105Z,22.40
2019-02-14T20:34:50.993Z,24.23
2019-02-14T20:36:52.881Z,27.45
2019-02-14T20:38:54.608Z,23.52
2019-02-14T20:40:56.328Z,24.00
2019-02-14T20:43:03.097Z,23.85
2019-02-14T20:45:05.235Z,20.85
2019-02-14T20:47:06.945Z,25.48
2019-02-14T20:49:08.957Z,22.80
2019-02-14T20:51:10.789Z,22.65
2019-02-14T20:53:12.634Z,29.18
2019-02-14T20:55:15.425Z,28.40
2019-02-14T20:57:17.134Z,22.95
2019-02-14T20:59:18.842Z,22.70
2019-02-14T21:01:20.689Z,24.45
2019-02-14T21:03:22.504Z,27.37
2019-02-14T21:05:24.576Z,28.23
2019-02-14T21:07:26.368Z,28.92
2019-02-14T21:09:28.073Z,29.32
2019-02-14T21:11:30.140Z,27.40
2019-02-14T21:13:31.881Z,29.18
2019-02-14T21:15:33.692Z,26.05
2019-02-14T21:17:35.421Z,26.07
2019-02-14T21:19:37.357Z,25.82
2019-02-14T21:21:39.185Z,28.35
2019-02-14T21:23:40.993Z,25.02
2019-02-14T21:25:42.848Z,23.77
2019-02-14T21:27:44.727Z,27.85
2019-02-14T21:29:46.821Z,25.08
2019-02-14T21:31:48.673Z,27.17
2019-02-14T21:33:50.383Z,27.20
2019-02-14T21:35:52.089Z,21.45
2019-02-14T21:38:06.246Z,22.75
2019-02-14T21:40:09.912Z,21.30
2019-02-14T21:42:20.921Z,26.20
2019-02-14T21:44:17.703Z,21.90
2019-02-14T21:46:19.414Z,27.10
2019-02-14T21:48:21.157Z,23.67
2019-02-14T21:50:23.121Z,23.05
2019-02-14T21:52:24.841Z,22.52
2019-02-14T21:54:26.961Z,26.17
2019-02-14T21:56:28.829Z,24.60
2019-02-14T21:58:30.762Z,25.68
2019-02-14T22:00:32.573Z,25.32
2019-02-14T22:02:34.391Z,24.02
2019-02-14T22:04:36.328Z,26.25
2019-02-14T22:06:38.125Z,26.52
2019-02-14T22:08:39.967Z,30.48
2019-02-14T22:10:41.825Z,23.50
2019-02-14T22:15:14.716Z,33.73
2019-02-14T22:17:16.557Z,28.02
2019-02-14T22:19:18.309Z,29.45
2019-02-14T22:21:20.017Z,25.60
2019-02-14T22:23:21.898Z,24.72
2019-02-14T22:25:23.594Z,30.43
2019-02-14T22:27:25.321Z,27.73
2019-02-14T22:29:27.242Z,24.05
2019-02-14T22:31:28.941Z,23.90
2019-02-14T22:33:30.738Z,26.82
2019-02-14T22:35:32.453Z,24.67
2019-02-14T22:37:34.185Z,24.30
2019-02-14T22:39:36.098Z,28.47
2019-02-14T22:41:38.842Z,25.08
2019-02-14T22:43:40.645Z,24.95
2019-02-14T22:45:42.603Z,25.75
2019-02-14T22:47:44.324Z,23.42
2019-02-14T22:49:46.032Z,27.62
2019-02-14T22:51:47.748Z,23.07
2019-02-14T22:53:49.485Z,26.50
2019-02-14T22:55:51.192Z,22.93
2019-02-14T22:57:52.889Z,23.80
2019-02-14T22:59:54.943Z,25.45
2019-02-14T23:01:56.851Z,21.90
2019-02-14T23:03:58.651Z,25.95
2019-02-14T23:06:00.477Z,26.65
2019-02-14T23:08:02.398Z,22.85
2019-02-14T23:10:04.356Z,24.02
2019-02-14T23:12:06.317Z,24.90
2019-02-14T23:14:08.027Z,24.10
2019-02-14T23:16:09.729Z,25.88
2019-02-14T23:18:11.457Z,27.62
2019-02-14T23:20:13.273Z,26.40
2019-02-14T23:22:14.979Z,23.80
2019-02-14T23:24:16.752Z,26.25
2019-02-14T23:26:18.465Z,21.40
2019-02-14T23:28:20.198Z,22.32
2019-02-14T23:30:21.888Z,23.65
2019-02-14T23:32:23.693Z,26.07
2019-02-14T23:34:25.430Z,27.17
2019-02-14T23:36:27.322Z,20.10
2019-02-14T23:38:29.020Z,22.77
2019-02-14T23:40:30.852Z,24.77
2019-02-14T23:42:32.904Z,22.45
2019-02-14T23:44:34.680Z,24.72
2019-02-14T23:46:36.597Z,25.75
2019-02-14T23:48:38.305Z,25.95
2019-02-14T23:50:40.021Z,24.00
2019-02-14T23:52:41.723Z,24.05
2019-02-14T23:54:43.428Z,25.40
2019-02-14T23:56:45.148Z,24.95
2019-02-14T23:58:47.191Z,26.73
